| time (UTC) | temp C | wind direction | speed KPH | gust KPH | rain 1hr cm | rain 24hr cm | rain mn cm | humidity % | barometer mb |
| 20260506224539 | 8 | 90 | 0.0 | 3.2 | 0.00 | 0.58 | 0.00 | 77 | 1010.9 |
| 20260506223048 | 8 | 352 | 0.0 | 3.2 | 0.00 | 0.58 | 0.00 | 78 | 1010.7 |
| 20260506221532 | 9 | 252 | 0.0 | 1.6 | 0.00 | 0.58 | 0.00 | 74 | 1010.7 |
| 20260506220030 | 10 | 360 | 1.6 | 4.8 | 0.00 | 0.58 | 0.00 | 73 | 1010.6 |
| 20260506214526 | 10 | 27 | 0.0 | 3.2 | 0.00 | 0.58 | 0.58 | 71 | 1010.4 |
| 20260506213028 | 10 | 266 | 0.0 | 3.2 | 0.00 | 0.58 | 0.58 | 73 | 1010.4 |
| 20260506211532 | 10 | 276 | 0.0 | 3.2 | 0.00 | 0.58 | 0.58 | 72 | 1010.4 |
| 20260506210030 | 11 | 359 | 0.0 | 1.6 | 0.00 | 0.58 | 0.58 | 66 | 1010.4 |
| 20260506204524 | 12 | 4 | 0.0 | 3.2 | 0.00 | 0.58 | 0.58 | 62 | 1010.2 |
| 20260506203028 | 13 | 214 | 0.0 | 4.8 | 0.00 | 0.58 | 0.58 | 53 | 1009.8 |
| 20260506201532 | 15 | 253 | 4.8 | 14.5 | 0.00 | 0.58 | 0.58 | 45 | 1009.5 |
| 20260506200022 | 14 | 255 | 1.6 | 8.0 | 0.00 | 0.58 | 0.58 | 49 | 1009.1 |
| 20260506194527 | 15 | 231 | 3.2 | 9.7 | 0.00 | 0.58 | 0.58 | 46 | 1008.9 |
| 20260506193020 | 15 | 250 | 4.8 | 19.3 | 0.00 | 0.58 | 0.58 | 45 | 1008.4 |
| 20260506191519 | 15 | 225 | 6.4 | 19.3 | 0.00 | 0.58 | 0.58 | 45 | 1008.2 |
| 20260506190019 | 15 | 250 | 6.4 | 19.3 | 0.00 | 0.58 | 0.58 | 45 | 1008.2 |
| 20260506184518 | 16 | 288 | 1.6 | 22.5 | 0.00 | 0.58 | 0.58 | 45 | 1007.8 |
| 20260506183027 | 16 | 269 | 6.4 | 17.7 | 0.00 | 0.58 | 0.58 | 43 | 1007.6 |
| 20260506181516 | 16 | 252 | 6.4 | 12.9 | 0.00 | 0.58 | 0.58 | 45 | 1007.2 |
| 20260506180016 | 16 | 265 | 4.8 | 20.9 | 0.00 | 0.58 | 0.58 | 45 | 1006.9 |
| 20260506174515 | 16 | 270 | 4.8 | 24.1 | 0.00 | 0.58 | 0.58 | 43 | 1006.8 |
| 20260506173015 | 16 | 262 | 4.8 | 22.5 | 0.00 | 0.58 | 0.58 | 43 | 1006.7 |
| 20260506171520 | 16 | 224 | 3.2 | 35.4 | 0.00 | 0.58 | 0.58 | 43 | 1006.6 |
| 20260506170012 | 16 | 276 | 11.3 | 29.0 | 0.00 | 0.58 | 0.58 | 43 | 1006.3 |
| 20260506164512 | 17 | 233 | 3.2 | 30.6 | 0.00 | 0.61 | 0.58 | 44 | 1006.0 |
| 20260506163014 | 17 | 246 | 9.7 | 37.0 | 0.00 | 0.61 | 0.58 | 43 | 1006.0 |
| 20260506161510 | 18 | 245 | 17.7 | 35.4 | 0.00 | 0.61 | 0.58 | 42 | 1005.5 |
| 20260506160010 | 20 | 86 | 3.2 | 12.9 | 0.00 | 0.61 | 0.58 | 51 | 1005.4 |
| 20260506154508 | 20 | 224 | 3.2 | 9.7 | 0.00 | 0.61 | 0.58 | 40 | 1005.4 |
| 20260506153010 | 19 | 97 | 4.8 | 11.3 | 0.00 | 0.61 | 0.58 | 48 | 1005.4 |
| 20260506151506 | 21 | 103 | 3.2 | 9.7 | 0.00 | 0.61 | 0.58 | 39 | 1005.4 |
| 20260506150004 | 20 | 245 | 3.2 | 9.7 | 0.00 | 0.61 | 0.58 | 42 | 1005.6 |
| 20260506144501 | 19 | 261 | 4.8 | 11.3 | 0.00 | 0.61 | 0.58 | 41 | 1005.5 |
| 20260506143109 | 18 | 262 | 11.3 | 27.4 | 0.00 | 0.61 | 0.58 | 45 | 1005.7 |
| 20260506141559 | 18 | 287 | 12.9 | 32.2 | 0.00 | 0.61 | 0.58 | 43 | 1006.3 |
| 20260506140104 | 17 | 240 | 12.9 | 24.1 | 0.00 | 0.61 | 0.58 | 44 | 1006.3 |
| 20260506134559 | 19 | 252 | 4.8 | 22.5 | 0.00 | 0.61 | 0.58 | 45 | 1005.9 |
| 20260506133058 | 20 | 269 | 8.0 | 20.9 | 0.00 | 0.61 | 0.58 | 46 | 1005.8 |
| 20260506131556 | 20 | 240 | 3.2 | 9.7 | 0.00 | 0.61 | 0.58 | 51 | 1006.0 |
| 20260506130100 | 20 | 274 | 3.2 | 11.3 | 0.00 | 0.61 | 0.58 | 51 | 1006.3 |
| 20260506124552 | 18 | 143 | 4.8 | 16.1 | 0.00 | 0.61 | 0.58 | 63 | 1006.1 |
| 20260506123051 | 17 | 266 | 6.4 | 30.6 | 0.00 | 0.61 | 0.58 | 47 | 1006.3 |
| 20260506121553 | 16 | 259 | 8.0 | 27.4 | 0.00 | 0.61 | 0.58 | 52 | 1006.0 |
| 20260506120049 | 17 | 295 | 16.1 | 27.4 | 0.00 | 0.61 | 0.58 | 47 | 1006.1 |
| 20260506114550 | 18 | 112 | 8.0 | 17.7 | 0.00 | 0.61 | 0.58 | 65 | 1005.7 |
| 20260506113047 | 17 | 102 | 6.4 | 16.1 | 0.00 | 0.61 | 0.58 | 65 | 1005.5 |
| 20260506111545 | 17 | 120 | 8.0 | 14.5 | 0.00 | 0.61 | 0.58 | 66 | 1005.5 |
| 20260506110043 | 17 | 86 | 11.3 | 19.3 | 0.00 | 0.61 | 0.58 | 66 | 1005.8 |
| 20260506104541 | 18 | 20 | 0.0 | 6.4 | 0.00 | 0.61 | 0.58 | 66 | 1006.1 |
| 20260506103046 | 17 | 262 | 3.2 | 9.7 | 0.00 | 0.61 | 0.58 | 65 | 1006.4 |
| 20260506101532 | 17 | 116 | 0.0 | 11.3 | 0.00 | 0.61 | 0.58 | 71 | 1006.6 |
| 20260506100030 | 16 | 200 | 4.8 | 14.5 | 0.00 | 0.61 | 0.58 | 72 | 1006.9 |
| 20260506094528 | 16 | 85 | 3.2 | 8.0 | 0.00 | 0.61 | 0.58 | 72 | 1007.1 |
| 20260506093024 | 15 | 114 | 3.2 | 8.0 | 0.00 | 0.61 | 0.58 | 74 | 1007.4 |
| 20260506091522 | 15 | 113 | 4.8 | 8.0 | 0.00 | 0.61 | 0.58 | 74 | 1007.5 |
| 20260506090026 | 15 | 101 | 0.0 | 4.8 | 0.00 | 0.61 | 0.58 | 81 | 1007.6 |
| 20260506084514 | 13 | 258 | 0.0 | 3.2 | 0.00 | 0.61 | 0.58 | 87 | 1007.7 |
| 20260506083013 | 12 | 9 | 0.0 | 1.6 | 0.05 | 0.61 | 0.58 | 93 | 1007.8 |
| 20260506081508 | 11 | 270 | 0.0 | 1.6 | 0.05 | 0.61 | 0.58 | 94 | 1008.0 |
| 20260506073004 | 11 | 256 | 0.0 | 1.6 | 0.00 | 0.58 | 0.53 | 94 | 1008.0 |
| 20260506071504 | 11 | 257 | 0.0 | 1.6 | 0.00 | 0.58 | 0.53 | 93 | 1008.0 |
| 20260506061602 | 10 | 132 | 1.6 | 8.0 | 0.08 | 0.61 | 0.53 | 95 | 1008.1 |
| 20260506050108 | 10 | 116 | 3.2 | 14.5 | 0.28 | 0.43 | 0.38 | 94 | 1008.0 |
| 20260506044553 | 10 | 110 | 4.8 | 9.7 | 0.20 | 0.51 | 0.28 | 94 | 1008.0 |
| 20260506043059 | 10 | 142 | 3.2 | 12.9 | 0.15 | 0.43 | 0.23 | 94 | 1007.9 |
| 20260506041551 | 10 | 132 | 3.2 | 9.7 | 0.05 | 0.36 | 0.15 | 94 | 1008.0 |
| 20260506040051 | 10 | 120 | 3.2 | 14.5 | 0.05 | 0.33 | 0.10 | 95 | 1008.2 |
| 20260506034549 | 10 | 143 | 0.0 | 9.7 | 0.03 | 0.51 | 0.08 | 94 | 1008.1 |
| 20260506033048 | 10 | 112 | 1.6 | 8.0 | 0.03 | 0.51 | 0.08 | 94 | 1008.4 |
| 20260506031643 | 10 | 90 | 3.2 | 11.3 | 0.03 | 0.51 | 0.08 | 94 | 1008.5 |
| 20260506030042 | 10 | 141 | 1.6 | 9.7 | 0.00 | 0.48 | 0.05 | 94 | 1008.8 |
| 20260506024544 | 10 | 153 | 3.2 | 9.7 | 0.03 | 0.64 | 0.05 | 94 | 1009.1 |
| 20260506023037 | 10 | 75 | 1.6 | 6.4 | 0.03 | 0.64 | 0.05 | 94 | 1009.1 |
| 20260506021538 | 10 | 132 | 0.0 | 6.4 | 0.03 | 0.64 | 0.05 | 94 | 1009.4 |
| 20260506020034 | 10 | 153 | 0.0 | 4.8 | 0.03 | 0.64 | 0.05 | 94 | 1009.6 |
| 20260506014533 | 10 | 136 | 1.6 | 6.4 | 0.00 | 0.64 | 0.05 | 94 | 1009.8 |
| 20260506013031 | 10 | 124 | 0.0 | 9.7 | 0.00 | 0.64 | 0.05 | 94 | 1009.7 |
| 20260506011535 | 10 | 86 | 1.6 | 8.0 | 0.00 | 0.64 | 0.05 | 94 | 1009.8 |
| 20260506010027 | 11 | 90 | 1.6 | 4.8 | 0.03 | 0.64 | 0.05 | 93 | 1010.2 |
| 20260506004525 | 11 | 89 | 1.6 | 6.4 | 0.05 | 0.64 | 0.05 | 93 | 1010.7 |
| 20260506003023 | 11 | 100 | 3.2 | 6.4 | 0.05 | 0.64 | 0.05 | 93 | 1010.8 |
| 20260506001520 | 11 | 127 | 0.0 | 1.6 | 0.05 | 0.64 | 0.05 | 93 | 1011.0 |
| 20260506000018 | 11 | 105 | 0.0 | 1.6 | 0.03 | 0.61 | 0.03 | 93 | 1011.2 |
| 20260505234520 | 11 | 98 | 0.0 | 1.6 | 0.00 | 0.61 | 0.00 | 93 | 1011.4 |
| 20260505233016 | 11 | 98 | 1.6 | 3.2 | 0.00 | 0.61 | 0.00 | 93 | 1011.7 |
| 20260505231514 | 11 | 143 | 0.0 | 1.6 | 0.00 | 0.61 | 0.00 | 93 | 1011.6 |
| 20260505230017 | 11 | 131 | 0.0 | 1.6 | 0.00 | 0.61 | 0.00 | 93 | 1012.0 |